createdAt,value
2018-04-20T00:00:44.916Z,7.03
2018-04-20T00:03:12.399Z,8.50
2018-04-20T00:05:40.163Z,10.07
2018-04-20T00:08:07.993Z,7.10
2018-04-20T00:10:35.546Z,10.13
2018-04-20T00:13:03.939Z,9.87
2018-04-20T00:15:32.092Z,9.10
2018-04-20T00:17:59.591Z,8.93
2018-04-20T00:20:27.128Z,8.10
2018-04-20T00:22:55.036Z,8.10
2018-04-20T00:25:22.781Z,10.93
2018-04-20T00:27:51.104Z,10.30
2018-04-20T00:30:18.827Z,8.67
2018-04-20T00:32:46.332Z,9.23
2018-04-20T00:35:14.095Z,9.20
2018-04-20T00:37:41.602Z,9.87
2018-04-20T00:40:09.202Z,8.10
2018-04-20T00:42:37.786Z,10.83
2018-04-20T00:45:05.338Z,7.90
2018-04-20T00:47:33.222Z,10.63
2018-04-20T00:50:00.721Z,14.20
2018-04-20T00:52:28.637Z,9.90
2018-04-20T00:54:56.890Z,10.47
2018-04-20T00:57:24.373Z,9.77
2018-04-20T00:59:52.978Z,9.33
2018-04-20T01:02:20.836Z,11.07
2018-04-20T01:04:48.490Z,15.07
2018-04-20T01:07:16.103Z,9.27
2018-04-20T01:09:43.589Z,12.40
2018-04-20T01:12:12.009Z,9.60
2018-04-20T01:14:39.767Z,17.77
2018-04-20T01:17:07.252Z,9.40
2018-04-20T01:19:35.555Z,15.33
2018-04-20T01:22:04.256Z,11.20
2018-04-20T01:24:33.057Z,10.97
2018-04-20T01:27:00.852Z,9.40
2018-04-20T01:29:28.866Z,9.03
2018-04-20T01:31:56.654Z,12.53
2018-04-20T01:34:24.323Z,11.77
2018-04-20T01:36:52.071Z,11.60
2018-04-20T01:39:19.568Z,8.67
2018-04-20T01:41:47.395Z,15.87
2018-04-20T01:44:15.120Z,8.60
2018-04-20T01:46:43.358Z,9.47
2018-04-20T01:49:11.020Z,9.60
2018-04-20T01:51:38.654Z,8.73
2018-04-20T01:54:06.170Z,11.77
2018-04-20T01:56:34.726Z,10.37
2018-04-20T01:59:02.472Z,13.50
2018-04-20T02:01:30.009Z,9.27
2018-04-20T02:03:58.266Z,10.37
2018-04-20T02:06:26.675Z,10.73
2018-04-20T02:08:54.227Z,10.23
2018-04-20T02:11:21.996Z,13.63
2018-04-20T02:13:49.468Z,9.70
2018-04-20T02:16:17.628Z,9.90
2018-04-20T02:18:45.381Z,9.57
2018-04-20T02:21:12.859Z,13.20
2018-04-20T02:23:40.362Z,10.67
2018-04-20T02:26:08.534Z,12.60
2018-04-20T02:28:36.092Z,12.47
2018-04-20T02:31:04.016Z,11.07
2018-04-20T02:33:31.518Z,13.33
2018-04-20T02:35:59.349Z,8.87
2018-04-20T02:38:26.883Z,10.97
2018-04-20T02:40:55.914Z,10.80
2018-04-20T02:43:23.572Z,11.50
2018-04-20T02:45:51.065Z,12.37
2018-04-20T02:48:18.697Z,11.70
2018-04-20T02:50:46.561Z,18.63
2018-04-20T02:53:15.173Z,9.57
2018-04-20T02:55:43.202Z,11.43
2018-04-20T02:58:10.909Z,13.07
2018-04-20T03:00:38.551Z,10.07
2018-04-20T03:03:07.934Z,11.43
2018-04-20T03:05:35.541Z,10.40
2018-04-20T03:08:03.344Z,10.40
2018-04-20T03:10:31.392Z,10.30
2018-04-20T03:13:01.545Z,11.80
2018-04-20T03:15:29.428Z,10.63
2018-04-20T03:17:56.928Z,10.67
2018-04-20T03:20:24.655Z,12.83
2018-04-20T03:22:52.515Z,15.27
2018-04-20T03:25:20.251Z,11.10
2018-04-20T03:27:48.529Z,11.20
2018-04-20T03:30:16.856Z,14.30
2018-04-20T03:32:44.356Z,12.20
2018-04-20T03:35:12.257Z,13.07
2018-04-20T03:37:39.739Z,14.83
2018-04-20T03:40:08.171Z,17.17
2018-04-20T03:42:36.208Z,16.20
2018-04-20T03:45:03.918Z,15.37
2018-04-20T03:47:31.406Z,13.57
2018-04-20T03:49:59.230Z,15.57
2018-04-20T03:52:26.712Z,17.63
2018-04-20T03:54:54.932Z,12.07
2018-04-20T03:57:22.650Z,14.70
2018-04-20T03:59:50.621Z,11.73
2018-04-20T04:02:18.114Z,17.27
2018-04-20T04:04:46.097Z,16.03
2018-04-20T04:07:15.007Z,14.87
2018-04-20T04:09:42.525Z,17.50
2018-04-20T04:12:10.436Z,24.40
2018-04-20T04:14:38.340Z,22.13
2018-04-20T04:17:17.656Z,18.90
2018-04-20T04:19:57.514Z,27.10
2018-04-20T04:22:36.717Z,20.87
2018-04-20T04:25:16.417Z,28.07
2018-04-20T04:27:47.418Z,18.10
2018-04-20T04:30:16.520Z,17.60
2018-04-20T04:32:44.034Z,14.80
2018-04-20T04:35:12.259Z,21.77
2018-04-20T04:37:39.757Z,15.37
2018-04-20T04:40:07.781Z,16.60
2018-04-20T04:42:35.442Z,13.97
2018-04-20T04:45:02.981Z,14.97
2018-04-20T04:47:30.743Z,15.27
2018-04-20T04:49:58.422Z,16.30
2018-04-20T04:52:26.565Z,13.30
2018-04-20T04:54:54.053Z,14.70
2018-04-20T04:57:22.109Z,16.37
2018-04-20T04:59:50.449Z,16.90
2018-04-20T05:02:18.142Z,16.97
2018-04-20T05:04:47.983Z,16.17
2018-04-20T05:07:15.837Z,18.70
2018-04-20T05:09:43.325Z,12.10
2018-04-20T05:12:10.837Z,16.77
2018-04-20T05:14:40.208Z,15.03
2018-04-20T05:17:07.717Z,14.03
2018-04-20T05:19:36.281Z,13.57
2018-04-20T05:22:04.567Z,12.93
2018-04-20T05:24:32.315Z,18.13
2018-04-20T05:26:59.843Z,13.43
2018-04-20T05:29:27.349Z,13.67
2018-04-20T05:31:54.845Z,15.23
2018-04-20T05:34:25.665Z,11.13
2018-04-20T05:36:53.144Z,14.23
2018-04-20T05:39:20.939Z,14.73
2018-04-20T05:41:48.465Z,14.10
2018-04-20T05:44:16.291Z,13.50
2018-04-20T05:46:43.824Z,17.70
2018-04-20T05:49:11.418Z,13.30
2018-04-20T05:51:39.178Z,15.70
2018-04-20T05:54:07.151Z,12.03
2018-04-20T05:56:35.209Z,15.40
2018-04-20T05:59:04.376Z,14.53
2018-04-20T06:01:47.931Z,17.17
2018-04-20T06:04:15.557Z,14.73
2018-04-20T06:06:43.533Z,11.53
2018-04-20T06:09:11.097Z,13.27
2018-04-20T06:11:38.903Z,10.30
2018-04-20T06:14:06.680Z,11.93
2018-04-20T06:16:34.188Z,13.33
2018-04-20T06:19:02.667Z,13.60
2018-04-20T06:21:30.797Z,9.77
2018-04-20T06:23:58.444Z,10.47
2018-04-20T06:26:25.932Z,11.03
2018-04-20T06:28:54.344Z,9.90
2018-04-20T06:31:21.913Z,12.30
2018-04-20T06:33:50.404Z,12.57
2018-04-20T06:36:18.372Z,15.30
2018-04-20T06:38:46.625Z,12.23
2018-04-20T06:41:15.072Z,11.13
2018-04-20T06:43:42.562Z,8.83
2018-04-20T06:46:11.012Z,9.13
2018-04-20T06:48:39.093Z,12.70
2018-04-20T06:51:09.379Z,12.83
2018-04-20T06:53:37.324Z,15.90
2018-04-20T06:56:05.213Z,13.53
2018-04-20T06:58:33.930Z,12.90
2018-04-20T07:01:02.515Z,12.90
2018-04-20T07:03:30.712Z,11.43
2018-04-20T07:05:58.510Z,10.70
2018-04-20T07:08:26.032Z,9.43
2018-04-20T07:10:54.446Z,9.77
2018-04-20T07:13:21.954Z,10.67
2018-04-20T07:15:49.909Z,9.53
2018-04-20T07:18:17.415Z,11.97
2018-04-20T07:20:45.084Z,11.23
2018-04-20T07:23:13.742Z,9.23
2018-04-20T07:25:41.239Z,10.50
2018-04-20T07:28:10.439Z,9.57
2018-04-20T07:30:37.937Z,10.20
2018-04-20T07:33:06.845Z,11.73
2018-04-20T07:35:34.332Z,9.53
2018-04-20T07:38:02.619Z,11.40
2018-04-20T07:40:30.156Z,8.27
2018-04-20T07:42:58.964Z,9.73
2018-04-20T07:45:27.944Z,8.30
2018-04-20T07:47:56.199Z,11.63
2018-04-20T07:50:23.731Z,14.17
2018-04-20T07:52:51.556Z,10.93
2018-04-20T07:55:19.829Z,11.43
2018-04-20T07:57:47.561Z,10.57
2018-04-20T08:00:15.052Z,11.70
2018-04-20T08:02:43.732Z,8.13
2018-04-20T08:05:12.022Z,10.93
2018-04-20T08:07:40.635Z,9.03
2018-04-20T08:10:10.314Z,8.80
2018-04-20T08:12:38.100Z,14.50
2018-04-20T08:15:06.376Z,10.63
2018-04-20T08:17:34.242Z,9.80
2018-04-20T08:20:01.851Z,8.57
2018-04-20T08:22:29.746Z,8.43
2018-04-20T08:24:58.418Z,10.80
2018-04-20T08:27:26.121Z,10.20
2018-04-20T08:29:53.982Z,8.10
2018-04-20T08:32:21.482Z,10.43
2018-04-20T08:34:49.322Z,9.83
2018-04-20T08:37:17.052Z,12.13
2018-04-20T08:39:45.369Z,10.30
2018-04-20T08:42:13.567Z,8.23
2018-04-20T08:44:41.763Z,9.70
2018-04-20T08:47:09.485Z,6.83
2018-04-20T08:49:37.243Z,9.23
2018-04-20T08:52:04.753Z,8.17
2018-04-20T08:54:33.413Z,9.13
2018-04-20T08:57:00.917Z,7.97
2018-04-20T08:59:28.800Z,8.47
2018-04-20T09:01:56.422Z,8.07
2018-04-20T09:04:24.733Z,10.20
2018-04-20T09:06:52.234Z,9.60
2018-04-20T13:47:01.749Z,5.73
2018-04-20T13:49:29.690Z,8.23
2018-04-20T13:51:58.300Z,8.50
2018-04-20T13:54:27.803Z,7.17
2018-04-20T13:56:56.968Z,6.27
2018-04-20T13:59:24.518Z,7.33
2018-04-20T14:01:52.620Z,8.43
2018-04-20T14:04:20.481Z,9.07
2018-04-20T14:06:48.308Z,9.57
2018-04-20T14:09:15.987Z,8.10
2018-04-20T14:11:43.864Z,8.30
2018-04-20T14:14:11.398Z,8.17
2018-04-20T14:16:39.297Z,6.27
2018-04-20T14:19:06.863Z,3.50
2018-04-20T14:21:34.396Z,8.57
2018-04-20T14:24:02.934Z,7.33
2018-04-20T14:26:32.199Z,8.30
2018-04-20T14:29:00.612Z,7.07
2018-04-20T14:31:29.126Z,8.50
2018-04-20T14:33:57.184Z,9.80
2018-04-20T14:36:25.058Z,6.60
2018-04-20T14:38:52.847Z,10.20
2018-04-20T14:41:21.108Z,7.00
2018-04-20T14:43:48.770Z,8.30
2018-04-20T14:46:16.313Z,6.13
2018-04-20T14:48:44.321Z,5.87
2018-04-20T14:51:13.777Z,6.70
2018-04-20T14:53:42.563Z,8.17
2018-04-20T14:56:10.242Z,8.20
2018-04-20T14:58:38.170Z,6.27
2018-04-20T15:01:05.753Z,9.97
2018-04-20T15:03:38.672Z,11.93
2018-04-20T15:06:06.674Z,8.23
2018-04-20T15:08:41.761Z,7.90
2018-04-20T15:11:09.514Z,8.27
2018-04-20T15:13:38.281Z,11.20
2018-04-20T15:16:08.544Z,6.13
2018-04-20T15:18:36.069Z,8.03
2018-04-20T15:21:03.641Z,6.83
2018-04-20T15:36:06.198Z,6.87
2018-04-20T15:38:34.021Z,9.53
2018-04-20T15:41:01.526Z,7.17
2018-04-20T15:43:29.072Z,6.87
2018-04-20T15:45:58.022Z,7.17
2018-04-20T15:48:26.174Z,8.67
2018-04-20T15:50:53.769Z,6.93
2018-04-20T15:53:24.294Z,5.13
2018-04-20T15:55:56.643Z,7.23
2018-04-20T15:58:24.235Z,4.37
2018-04-20T16:00:52.759Z,6.13
2018-04-20T16:03:20.604Z,9.23
2018-04-20T16:05:48.478Z,7.93
2018-04-20T16:08:16.587Z,6.87
2018-04-20T16:10:45.149Z,10.17
2018-04-20T16:13:13.578Z,5.80
2018-04-20T16:15:41.898Z,7.80
2018-04-20T16:18:09.541Z,7.37
2018-04-20T16:20:37.875Z,5.93
2018-04-20T16:23:05.752Z,6.40
2018-04-20T16:25:33.579Z,7.27
2018-04-20T16:28:01.185Z,6.50
2018-04-20T16:30:29.089Z,5.13
2018-04-20T16:32:56.606Z,6.30
2018-04-20T16:35:24.465Z,7.07
2018-04-20T16:37:52.002Z,5.23
2018-04-20T16:40:20.156Z,6.47
2018-04-20T16:42:48.493Z,7.07
2018-04-20T16:45:16.464Z,7.97
2018-04-20T16:47:44.380Z,5.80
2018-04-20T16:50:13.195Z,8.57
2018-04-20T16:52:40.893Z,4.80
2018-04-20T16:55:08.699Z,5.67
2018-04-20T16:57:36.617Z,8.30
2018-04-20T17:00:04.772Z,11.43
2018-04-20T17:02:32.314Z,5.73
2018-04-20T17:04:59.944Z,9.57
2018-04-20T17:07:27.453Z,10.07
2018-04-20T17:09:54.960Z,7.60
2018-04-20T17:12:22.825Z,11.27
2018-04-20T17:14:50.583Z,8.93
2018-04-20T17:17:18.171Z,6.30
2018-04-20T17:19:45.894Z,8.30
2018-04-20T17:22:13.456Z,5.80
2018-04-20T17:24:41.155Z,8.83
2018-04-20T17:27:09.865Z,6.40
2018-04-20T17:29:37.684Z,11.13
2018-04-20T17:32:05.265Z,9.63
2018-04-20T17:34:33.826Z,8.03
2018-04-20T17:37:01.326Z,9.13
2018-04-20T17:39:29.646Z,9.03
2018-04-20T17:41:57.100Z,11.10
2018-04-20T17:44:24.661Z,10.33
2018-04-20T17:46:52.612Z,7.50
2018-04-20T17:49:20.464Z,9.47
2018-04-20T17:51:48.083Z,8.20
2018-04-20T17:54:15.815Z,8.53
2018-04-20T17:56:43.789Z,9.40
2018-04-20T17:59:11.374Z,13.00
2018-04-20T18:01:38.895Z,11.37
2018-04-20T18:04:06.802Z,11.97
2018-04-20T18:06:35.527Z,11.13
2018-04-20T18:09:03.985Z,8.73
2018-04-20T18:11:32.494Z,16.33
2018-04-20T18:14:00.037Z,11.67
2018-04-20T18:16:27.573Z,12.60
2018-04-20T18:18:55.160Z,10.23
2018-04-20T18:21:24.506Z,16.83
2018-04-20T18:23:52.362Z,10.30
2018-04-20T18:26:20.631Z,13.87
2018-04-20T18:28:48.733Z,9.67
2018-04-20T18:31:16.240Z,9.67
2018-04-20T18:33:44.360Z,14.13
2018-04-20T18:36:11.916Z,10.60
2018-04-20T18:38:39.852Z,10.37
2018-04-20T18:41:07.371Z,17.33
2018-04-20T18:43:35.757Z,12.90
2018-04-20T18:46:03.662Z,17.33
2018-04-20T18:48:32.129Z,12.37
2018-04-20T18:50:59.729Z,9.60
2018-04-20T18:53:27.247Z,13.20
2018-04-20T18:55:54.799Z,12.30
2018-04-20T18:58:24.431Z,17.03
2018-04-20T19:00:52.215Z,20.37
2018-04-20T19:03:19.757Z,11.20
2018-04-20T19:05:47.371Z,16.67
2018-04-20T19:08:14.890Z,12.53
2018-04-20T19:10:42.373Z,9.57
2018-04-20T19:13:10.179Z,15.50
2018-04-20T19:15:37.832Z,13.77
2018-04-20T19:18:05.567Z,12.67
2018-04-20T19:20:33.116Z,11.93
2018-04-20T19:23:00.921Z,11.17
2018-04-20T19:25:28.460Z,11.23
2018-04-20T19:27:56.033Z,12.43
2018-04-20T19:30:24.040Z,12.87
2018-04-20T19:32:51.953Z,10.20
2018-04-20T19:35:19.784Z,10.93
2018-04-20T19:37:47.284Z,10.23
2018-04-20T19:40:14.827Z,13.87
2018-04-20T19:42:42.325Z,10.47
2018-04-20T19:45:09.906Z,11.43
2018-04-20T19:47:37.735Z,14.20
2018-04-20T19:50:05.545Z,12.43
2018-04-20T19:59:03.716Z,9.83
2018-04-20T20:07:18.953Z,9.40
2018-04-20T20:09:48.932Z,14.80
2018-04-20T20:12:17.129Z,14.90
2018-04-20T20:14:45.671Z,12.33
2018-04-20T20:17:13.401Z,11.13
2018-04-20T20:19:42.014Z,9.83
2018-04-20T20:22:10.138Z,7.67
2018-04-20T20:24:38.875Z,11.50
2018-04-20T20:27:07.634Z,10.83
2018-04-20T20:29:35.445Z,9.03
2018-04-20T20:32:03.697Z,11.87
2018-04-20T20:34:31.380Z,8.70
2018-04-20T20:36:59.208Z,8.03
2018-04-20T20:39:27.936Z,13.77
2018-04-20T20:41:55.438Z,9.10
2018-04-20T20:44:23.972Z,12.50
2018-04-20T20:46:51.786Z,9.37
2018-04-20T20:49:19.669Z,11.70
2018-04-20T20:51:47.517Z,9.23
2018-04-20T20:54:15.017Z,10.30
2018-04-20T20:56:42.532Z,11.57
2018-04-20T20:59:10.624Z,6.00
2018-04-20T21:01:38.767Z,10.03
2018-04-20T21:04:08.032Z,7.17
2018-04-20T21:06:35.552Z,11.30
2018-04-20T21:09:03.317Z,11.23
2018-04-20T21:11:30.911Z,9.13
2018-04-20T21:13:59.374Z,10.77
2018-04-20T21:16:27.273Z,12.33
2018-04-20T21:18:55.701Z,7.90
2018-04-20T21:21:23.258Z,13.13
2018-04-20T21:23:51.008Z,8.97
2018-04-20T21:26:18.624Z,10.33
2018-04-20T21:28:46.407Z,12.70
2018-04-20T21:31:14.250Z,13.77
2018-04-20T21:33:42.055Z,10.77
2018-04-20T21:36:09.720Z,12.30
2018-04-20T21:38:38.255Z,14.50
2018-04-20T21:41:06.043Z,11.87
2018-04-20T21:43:33.572Z,11.20
2018-04-20T21:46:01.082Z,10.80
2018-04-20T21:48:28.981Z,11.27
2018-04-20T21:50:56.480Z,11.23
2018-04-20T21:53:24.011Z,9.93
2018-04-20T21:55:51.559Z,13.07
2018-04-20T21:58:19.078Z,14.10
2018-04-20T22:00:46.578Z,13.57
2018-04-20T22:03:14.509Z,9.57
2018-04-20T22:05:42.864Z,12.03
2018-04-20T22:08:10.366Z,14.60
2018-04-20T22:10:37.929Z,12.30
2018-04-20T22:13:05.481Z,8.60
2018-04-20T22:15:33.346Z,10.70
2018-04-20T22:18:01.261Z,17.70
2018-04-20T22:20:28.759Z,8.43
2018-04-20T22:22:56.266Z,9.30
2018-04-20T22:25:23.780Z,11.07
2018-04-20T22:27:51.649Z,11.77
2018-04-20T22:30:19.342Z,8.50
2018-04-20T22:32:47.256Z,12.73
2018-04-20T22:35:14.949Z,9.57
2018-04-20T22:37:42.695Z,9.37
2018-04-20T22:40:10.205Z,12.23
2018-04-20T22:42:37.872Z,13.87
2018-04-20T22:45:06.307Z,12.17
2018-04-20T22:47:33.797Z,10.03
2018-04-20T22:50:01.831Z,11.47
2018-04-20T22:52:29.487Z,10.63
2018-04-20T22:54:56.984Z,16.47
2018-04-20T22:57:24.780Z,12.77
2018-04-20T22:59:52.281Z,8.30
2018-04-20T23:02:19.952Z,10.77
2018-04-20T23:04:47.717Z,13.30
2018-04-20T23:07:15.423Z,13.30
2018-04-20T23:09:45.363Z,12.20
2018-04-20T23:12:13.637Z,10.77
2018-04-20T23:14:41.982Z,13.70
2018-04-20T23:17:09.472Z,8.83
2018-04-20T23:19:37.727Z,8.40
2018-04-20T23:22:05.236Z,13.13
2018-04-20T23:24:32.860Z,13.23
2018-04-20T23:27:01.475Z,15.57
2018-04-20T23:29:29.097Z,14.20
2018-04-20T23:31:57.445Z,15.27
2018-04-20T23:34:25.213Z,8.50
2018-04-20T23:36:52.743Z,10.17
2018-04-20T23:39:20.363Z,16.73
2018-04-20T23:41:47.887Z,10.67
2018-04-20T23:44:15.385Z,15.60
2018-04-20T23:46:44.032Z,11.97
2018-04-20T23:49:11.797Z,17.27
2018-04-20T23:51:39.305Z,10.87
2018-04-20T23:54:06.817Z,15.63
2018-04-20T23:56:34.743Z,10.80
2018-04-20T23:59:02.253Z,14.47
